sensor_id;sensor_type;location;lat;lon;timestamp;pressure;altitude;pressure_sealevel;temperature;humidity
55914;BME280;58179;48.776;9.124;2023-07-22T00:00:22;97322.66;;;14.44;100.00
55914;BME280;58179;48.776;9.124;2023-07-22T00:02:49;97325.88;;;14.36;100.00
55914;BME280;58179;48.776;9.124;2023-07-22T00:05:15;97330.16;;;14.31;100.00
55914;BME280;58179;48.776;9.124;2023-07-22T00:07:41;97327.81;;;14.25;100.00
55914;BME280;58179;48.776;9.124;2023-07-22T00:10:10;97327.28;;;14.23;100.00
55914;BME280;58179;48.776;9.124;2023-07-22T00:12:36;97327.59;;;14.16;100.00
55914;BME280;58179;48.776;9.124;2023-07-22T00:15:03;97321.50;;;14.11;100.00
55914;BME280;58179;48.776;9.124;2023-07-22T00:17:29;97321.25;;;14.07;100.00
55914;BME280;58179;48.776;9.124;2023-07-22T00:19:55;97324.47;;;14.04;100.00
55914;BME280;58179;48.776;9.124;2023-07-22T00:22:22;97328.72;;;14.00;100.00
55914;BME280;58179;48.776;9.124;2023-07-22T00:24:48;97321.03;;;13.99;100.00
55914;BME280;58179;48.776;9.124;2023-07-22T00:27:16;97323.44;;;13.95;100.00
55914;BME280;58179;48.776;9.124;2023-07-22T00:29:42;97319.72;;;13.91;100.00
55914;BME280;58179;48.776;9.124;2023-07-22T00:32:08;97322.94;;;13.88;100.00
55914;BME280;58179;48.776;9.124;2023-07-22T00:34:35;97317.09;;;13.86;100.00
55914;BME280;58179;48.776;9.124;2023-07-22T00:37:01;97326.41;;;13.83;100.00
55914;BME280;58179;48.776;9.124;2023-07-22T00:39:27;97324.31;;;13.80;100.00
55914;BME280;58179;48.776;9.124;2023-07-22T00:41:53;97324.84;;;13.77;100.00
55914;BME280;58179;48.776;9.124;2023-07-22T00:44:21;97320.09;;;13.74;100.00
55914;BME280;58179;48.776;9.124;2023-07-22T00:46:47;97325.69;;;13.73;100.00
55914;BME280;58179;48.776;9.124;2023-07-22T00:49:15;97325.16;;;13.66;100.00
55914;BME280;58179;48.776;9.124;2023-07-22T00:51:42;97316.66;;;13.64;100.00
55914;BME280;58179;48.776;9.124;2023-07-22T00:54:08;97320.91;;;13.65;100.00
55914;BME280;58179;48.776;9.124;2023-07-22T00:56:36;97321.72;;;13.65;100.00
55914;BME280;58179;48.776;9.124;2023-07-22T00:59:03;97320.91;;;13.65;100.00
55914;BME280;58179;48.776;9.124;2023-07-22T01:01:31;97310.28;;;13.65;100.00
55914;BME280;58179;48.776;9.124;2023-07-22T01:03:57;97310.31;;;13.60;100.00
55914;BME280;58179;48.776;9.124;2023-07-22T01:06:24;97310.84;;;13.56;100.00
55914;BME280;58179;48.776;9.124;2023-07-22T01:08:51;97309.50;;;13.54;100.00
55914;BME280;58179;48.776;9.124;2023-07-22T01:11:17;97313.53;;;13.51;100.00
55914;BME280;58179;48.776;9.124;2023-07-22T01:13:43;97311.13;;;13.50;100.00
55914;BME280;58179;48.776;9.124;2023-07-22T01:16:09;97306.88;;;13.49;100.00
55914;BME280;58179;48.776;9.124;2023-07-22T01:18:38;97305.28;;;13.48;100.00
55914;BME280;58179;48.776;9.124;2023-07-22T01:21:06;97308.19;;;13.46;100.00
55914;BME280;58179;48.776;9.124;2023-07-22T01:23:35;97301.31;;;13.45;100.00
55914;BME280;58179;48.776;9.124;2023-07-22T01:26:02;97292.81;;;13.43;100.00
55914;BME280;58179;48.776;9.124;2023-07-22T01:28:29;97291.22;;;13.42;100.00
55914;BME280;58179;48.776;9.124;2023-07-22T01:30:55;97290.69;;;13.40;100.00
55914;BME280;58179;48.776;9.124;2023-07-22T01:33:23;97294.69;;;13.38;100.00
55914;BME280;58179;48.776;9.124;2023-07-22T01:35:49;97289.63;;;13.31;100.00
55914;BME280;58179;48.776;9.124;2023-07-22T01:38:16;97284.09;;;13.28;100.00
55914;BME280;58179;48.776;9.124;2023-07-22T01:40:43;97289.13;;;13.29;100.00
55914;BME280;58179;48.776;9.124;2023-07-22T01:43:09;97282.75;;;13.25;100.00
55914;BME280;58179;48.776;9.124;2023-07-22T01:45:36;97282.50;;;13.22;100.00
55914;BME280;58179;48.776;9.124;2023-07-22T01:48:04;97283.84;;;13.19;100.00
55914;BME280;58179;48.776;9.124;2023-07-22T01:50:30;97289.69;;;13.16;100.00
55914;BME280;58179;48.776;9.124;2023-07-22T01:52:56;97283.56;;;13.10;100.00
55914;BME280;58179;48.776;9.124;2023-07-22T01:55:22;97286.75;;;13.12;100.00
55914;BME280;58179;48.776;9.124;2023-07-22T01:57:50;97283.28;;;13.12;100.00
55914;BME280;58179;48.776;9.124;2023-07-22T02:00:16;97285.94;;;13.12;100.00
55914;BME280;58179;48.776;9.124;2023-07-22T02:02:43;97285.41;;;13.10;100.00
55914;BME280;58179;48.776;9.124;2023-07-22T02:05:09;97282.75;;;13.10;100.00
55914;BME280;58179;48.776;9.124;2023-07-22T02:07:36;97289.13;;;13.09;100.00
55914;BME280;58179;48.776;9.124;2023-07-22T02:10:03;97282.25;;;13.08;100.00
55914;BME280;58179;48.776;9.124;2023-07-22T02:12:29;97286.47;;;13.09;100.00
55914;BME280;58179;48.776;9.124;2023-07-22T02:14:57;97282.25;;;13.08;100.00
55914;BME280;58179;48.776;9.124;2023-07-22T02:17:23;97283.31;;;13.07;100.00
55914;BME280;58179;48.776;9.124;2023-07-22T02:19:50;97290.22;;;13.08;100.00
55914;BME280;58179;48.776;9.124;2023-07-22T02:22:16;97293.66;;;13.03;100.00
55914;BME280;58179;48.776;9.124;2023-07-22T02:24:42;97291.56;;;13.00;100.00
55914;BME280;58179;48.776;9.124;2023-07-22T02:27:08;97295.78;;;13.01;100.00
55914;BME280;58179;48.776;9.124;2023-07-22T02:29:35;97293.41;;;13.05;100.00
55914;BME280;58179;48.776;9.124;2023-07-22T02:32:02;97292.06;;;13.02;100.00
55914;BME280;58179;48.776;9.124;2023-07-22T02:34:29;97297.38;;;13.02;100.00
55914;BME280;58179;48.776;9.124;2023-07-22T02:36:55;97291.28;;;13.02;100.00
55914;BME280;58179;48.776;9.124;2023-07-22T02:39:21;97291.28;;;13.02;100.00
55914;BME280;58179;48.776;9.124;2023-07-22T02:41:48;97289.13;;;13.09;100.00
55914;BME280;58179;48.776;9.124;2023-07-22T02:44:14;97297.09;;;13.09;100.00
55914;BME280;58179;48.776;9.124;2023-07-22T02:46:40;97292.31;;;13.11;100.00
55914;BME280;58179;48.776;9.124;2023-07-22T02:49:08;97292.06;;;13.12;100.00
55914;BME280;58179;48.776;9.124;2023-07-22T02:51:34;97296.88;;;13.15;100.00
55914;BME280;58179;48.776;9.124;2023-07-22T02:54:01;97289.16;;;13.14;100.00
55914;BME280;58179;48.776;9.124;2023-07-22T02:56:29;97296.88;;;13.15;100.00
55914;BME280;58179;48.776;9.124;2023-07-22T02:58:55;97289.94;;;13.25;100.00
55914;BME280;58179;48.776;9.124;2023-07-22T03:01:22;97289.94;;;13.30;100.00
55914;BME280;58179;48.776;9.124;2023-07-22T03:03:49;97284.63;;;13.30;100.00
55914;BME280;58179;48.776;9.124;2023-07-22T03:06:16;97285.13;;;13.32;100.00
55914;BME280;58179;48.776;9.124;2023-07-22T03:08:42;97282.19;;;13.33;100.00
55914;BME280;58179;48.776;9.124;2023-07-22T03:11:09;97281.13;;;13.34;100.00
55914;BME280;58179;48.776;9.124;2023-07-22T03:13:35;97281.13;;;13.34;100.00
55914;BME280;58179;48.776;9.124;2023-07-22T03:16:01;97283.75;;;13.39;100.00
55914;BME280;58179;48.776;9.124;2023-07-22T03:18:30;97293.59;;;13.39;100.00
55914;BME280;58179;48.776;9.124;2023-07-22T03:20:57;97284.81;;;13.38;100.00
55914;BME280;58179;48.776;9.124;2023-07-22T03:23:24;97280.88;;;13.36;100.00
55914;BME280;58179;48.776;9.124;2023-07-22T03:25:50;97284.84;;;13.33;100.00
55914;BME280;58179;48.776;9.124;2023-07-22T03:28:17;97284.06;;;13.33;100.00
55914;BME280;58179;48.776;9.124;2023-07-22T03:30:43;97283.81;;;13.29;100.00
55914;BME280;58179;48.776;9.124;2023-07-22T03:33:09;97284.88;;;13.28;100.00
55914;BME280;58179;48.776;9.124;2023-07-22T03:35:36;97280.09;;;13.25;100.00
55914;BME280;58179;48.776;9.124;2023-07-22T03:38:02;97279.28;;;13.25;100.00
55914;BME280;58179;48.776;9.124;2023-07-22T03:40:32;97279.28;;;13.25;100.00
55914;BME280;58179;48.776;9.124;2023-07-22T03:42:58;97285.16;;;13.22;100.00
55914;BME280;58179;48.776;9.124;2023-07-22T03:45:25;97281.97;;;13.20;100.00
55914;BME280;58179;48.776;9.124;2023-07-22T03:47:53;97284.09;;;13.17;100.00
55914;BME280;58179;48.776;9.124;2023-07-22T03:50:20;97285.44;;;13.15;100.00
55914;BME280;58179;48.776;9.124;2023-07-22T03:52:46;97285.44;;;13.15;100.00
55914;BME280;58179;48.776;9.124;2023-07-22T03:55:12;97282.00;;;13.14;100.00
55914;BME280;58179;48.776;9.124;2023-07-22T03:57:40;97284.09;;;13.12;100.00
55914;BME280;58179;48.776;9.124;2023-07-22T04:00:07;97289.97;;;13.14;100.00
55914;BME280;58179;48.776;9.124;2023-07-22T04:02:37;97282.50;;;13.16;100.00
55914;BME280;58179;48.776;9.124;2023-07-22T04:05:03;97285.16;;;13.16;100.00
55914;BME280;58179;48.776;9.124;2023-07-22T04:07:30;97292.63;;;13.14;100.00
55914;BME280;58179;48.776;9.124;2023-07-22T04:09:56;97296.88;;;13.15;100.00
55914;BME280;58179;48.776;9.124;2023-07-22T04:12:23;97279.59;;;13.13;100.00
55914;BME280;58179;48.776;9.124;2023-07-22T04:14:51;97274.28;;;13.13;100.00
55914;BME280;58179;48.776;9.124;2023-07-22T04:17:17;97288.91;;;13.15;100.00
55914;BME280;58179;48.776;9.124;2023-07-22T04:19:43;97284.38;;;13.21;100.00
55914;BME280;58179;48.776;9.124;2023-07-22T04:22:09;97287.81;;;13.22;100.00
55914;BME280;58179;48.776;9.124;2023-07-22T04:24:36;97280.63;;;13.27;100.00
55914;BME280;58179;48.776;9.124;2023-07-22T04:27:02;97275.53;;;13.31;100.00
55914;BME280;58179;48.776;9.124;2023-07-22T04:29:28;97273.97;;;13.30;100.00
55914;BME280;58179;48.776;9.124;2023-07-22T04:31:58;97274.50;;;13.37;100.00
55914;BME280;58179;48.776;9.124;2023-07-22T04:34:28;97280.56;;;13.42;100.00
55914;BME280;58179;48.776;9.124;2023-07-22T04:36:54;97276.84;;;13.43;100.00
55914;BME280;58179;48.776;9.124;2023-07-22T04:39:20;97285.06;;;13.47;100.00
55914;BME280;58179;48.776;9.124;2023-07-22T04:41:46;97278.13;;;13.56;100.00
55914;BME280;58179;48.776;9.124;2023-07-22T04:44:12;97280.75;;;13.61;100.00
55914;BME280;58179;48.776;9.124;2023-07-22T04:46:39;97280.25;;;13.59;100.00
55914;BME280;58179;48.776;9.124;2023-07-22T04:49:08;97272.00;;;13.61;100.00
55914;BME280;58179;48.776;9.124;2023-07-22T04:51:34;97277.81;;;13.63;100.00
55914;BME280;58179;48.776;9.124;2023-07-22T04:54:00;97277.53;;;13.69;100.00
55914;BME280;58179;48.776;9.124;2023-07-22T04:56:27;97290.03;;;13.74;100.00
55914;BME280;58179;48.776;9.124;2023-07-22T04:58:53;97282.50;;;13.86;100.00
55914;BME280;58179;48.776;9.124;2023-07-22T05:01:19;97290.53;;;13.81;100.00
55914;BME280;58179;48.776;9.124;2023-07-22T05:03:45;97293.16;;;13.86;100.00
55914;BME280;58179;48.776;9.124;2023-07-22T05:06:13;97292.88;;;13.87;100.00
55914;BME280;58179;48.776;9.124;2023-07-22T05:08:39;97287.31;;;13.84;100.00
55914;BME280;58179;48.776;9.124;2023-07-22T05:11:07;97286.81;;;13.82;100.00
55914;BME280;58179;48.776;9.124;2023-07-22T05:13:33;97293.16;;;13.86;100.00
55914;BME280;58179;48.776;9.124;2023-07-22T05:15:59;97285.44;;;13.84;100.00
55914;BME280;58179;48.776;9.124;2023-07-22T05:18:26;97292.63;;;13.89;100.00
55914;BME280;58179;48.776;9.124;2023-07-22T05:20:52;97293.16;;;13.86;100.00
55914;BME280;58179;48.776;9.124;2023-07-22T05:23:19;97296.88;;;13.90;100.00
55914;BME280;58179;48.776;9.124;2023-07-22T05:25:51;97300.00;;;14.02;100.00
55914;BME280;58179;48.776;9.124;2023-07-22T05:28:18;97302.31;;;14.14;100.00
55914;BME280;58179;48.776;9.124;2023-07-22T05:30:44;97302.91;;;14.06;100.00
55914;BME280;58179;48.776;9.124;2023-07-22T05:33:10;97297.47;;;14.26;100.00
55914;BME280;58179;48.776;9.124;2023-07-22T05:35:36;97297.13;;;14.32;100.00
55914;BME280;58179;48.776;9.124;2023-07-22T05:38:02;97304.59;;;14.30;100.00
55914;BME280;58179;48.776;9.124;2023-07-22T05:40:32;97304.06;;;14.28;100.00
55914;BME280;58179;48.776;9.124;2023-07-22T05:42:58;97301.06;;;14.50;100.00
55914;BME280;58179;48.776;9.124;2023-07-22T05:45:24;97303.66;;;14.55;100.00
55914;BME280;58179;48.776;9.124;2023-07-22T05:47:50;97304.88;;;14.68;100.00
55914;BME280;58179;48.776;9.124;2023-07-22T05:50:17;97300.34;;;14.68;100.00
55914;BME280;58179;48.776;9.124;2023-07-22T05:52:43;97307.56;;;14.68;100.00
55914;BME280;58179;48.776;9.124;2023-07-22T05:55:09;97298.38;;;14.84;100.00
55914;BME280;58179;48.776;9.124;2023-07-22T05:57:37;97304.25;;;14.81;100.00
55914;BME280;58179;48.776;9.124;2023-07-22T06:00:04;97313.66;;;15.02;100.00
55914;BME280;58179;48.776;9.124;2023-07-22T06:02:30;97326.38;;;15.10;100.00
55914;BME280;58179;48.776;9.124;2023-07-22T06:04:56;97331.16;;;15.14;100.00
55914;BME280;58179;48.776;9.124;2023-07-22T06:07:23;97338.81;;;15.20;100.00
55914;BME280;58179;48.776;9.124;2023-07-22T06:09:49;97339.56;;;15.26;100.00
55914;BME280;58179;48.776;9.124;2023-07-22T06:12:15;97344.31;;;15.29;100.00
55914;BME280;58179;48.776;9.124;2023-07-22T06:14:43;97340.84;;;15.33;100.00
55914;BME280;58179;48.776;9.124;2023-07-22T06:17:09;97342.13;;;15.36;100.00
55914;BME280;58179;48.776;9.124;2023-07-22T06:19:35;97342.84;;;15.41;100.00
55914;BME280;58179;48.776;9.124;2023-07-22T06:22:01;97345.78;;;15.45;100.00
55914;BME280;58179;48.776;9.124;2023-07-22T06:24:27;97350.56;;;15.48;100.00
55914;BME280;58179;48.776;9.124;2023-07-22T06:26:53;97344.63;;;15.51;100.00
55914;BME280;58179;48.776;9.124;2023-07-22T06:29:20;97346.78;;;15.54;100.00
55914;BME280;58179;48.776;9.124;2023-07-22T06:31:47;97351.53;;;15.57;100.00
55914;BME280;58179;48.776;9.124;2023-07-22T06:34:13;97353.63;;;15.60;100.00
55914;BME280;58179;48.776;9.124;2023-07-22T06:36:39;97353.84;;;15.64;100.00
55914;BME280;58179;48.776;9.124;2023-07-22T06:39:06;97356.25;;;15.65;100.00
55914;BME280;58179;48.776;9.124;2023-07-22T06:41:32;97360.75;;;15.70;100.00
55914;BME280;58179;48.776;9.124;2023-07-22T06:43:58;97347.63;;;15.73;100.00
55914;BME280;58179;48.776;9.124;2023-07-22T06:46:24;97359.31;;;15.77;100.00
55914;BME280;58179;48.776;9.124;2023-07-22T06:48:52;97354.72;;;15.83;100.00
55914;BME280;58179;48.776;9.124;2023-07-22T06:51:18;97357.09;;;15.84;100.00
55914;BME280;58179;48.776;9.124;2023-07-22T06:53:44;97343.69;;;15.90;100.00
55914;BME280;58179;48.776;9.124;2023-07-22T06:56:10;97358.00;;;15.75;100.00
55914;BME280;58179;48.776;9.124;2023-07-22T06:58:37;97351.69;;;15.66;100.00
55914;BME280;58179;48.776;9.124;2023-07-22T07:01:03;97355.44;;;15.88;100.00
55914;BME280;58179;48.776;9.124;2023-07-22T07:03:29;97352.81;;;16.07;100.00
55914;BME280;58179;48.776;9.124;2023-07-22T07:05:58;97359.09;;;16.16;100.00
55914;BME280;58179;48.776;9.124;2023-07-22T07:08:25;97358.88;;;16.13;100.00
55914;BME280;58179;48.776;9.124;2023-07-22T07:10:51;97361.00;;;16.16;100.00
55914;BME280;58179;48.776;9.124;2023-07-22T07:13:18;97362.34;;;16.32;100.00
55914;BME280;58179;48.776;9.124;2023-07-22T07:15:47;97361.78;;;16.35;100.00
55914;BME280;58179;48.776;9.124;2023-07-22T07:18:16;97356.31;;;16.45;100.00
55914;BME280;58179;48.776;9.124;2023-07-22T07:20:43;97355.16;;;16.51;100.00
55914;BME280;58179;48.776;9.124;2023-07-22T07:23:12;97349.88;;;16.46;100.00
55914;BME280;58179;48.776;9.124;2023-07-22T07:25:38;97355.34;;;16.55;100.00
55914;BME280;58179;48.776;9.124;2023-07-22T07:28:05;97359.78;;;16.64;100.00
55914;BME280;58179;48.776;9.124;2023-07-22T07:30:31;97361.16;;;16.81;100.00
55914;BME280;58179;48.776;9.124;2023-07-22T07:32:58;97350.31;;;16.91;100.00
55914;BME280;58179;48.776;9.124;2023-07-22T07:35:24;97353.69;;;16.96;100.00
55914;BME280;58179;48.776;9.124;2023-07-22T07:37:50;97359.03;;;16.96;100.00
55914;BME280;58179;48.776;9.124;2023-07-22T07:40:18;97363.84;;;17.13;100.00
55914;BME280;58179;48.776;9.124;2023-07-22T07:42:44;97357.69;;;17.13;100.00
55914;BME280;58179;48.776;9.124;2023-07-22T07:45:10;97350.28;;;17.23;100.00
55914;BME280;58179;48.776;9.124;2023-07-22T07:47:37;97349.78;;;16.89;100.00
55914;BME280;58179;48.776;9.124;2023-07-22T07:50:03;97349.94;;;16.79;100.00
55914;BME280;58179;48.776;9.124;2023-07-22T07:52:30;97347.41;;;16.87;100.00
55914;BME280;58179;48.776;9.124;2023-07-22T07:54:56;97350.50;;;16.94;100.00
55914;BME280;58179;48.776;9.124;2023-07-22T07:57:23;97347.72;;;16.67;100.00
55914;BME280;58179;48.776;9.124;2023-07-22T07:59:50;97348.34;;;16.78;100.00
55914;BME280;58179;48.776;9.124;2023-07-22T08:02:16;97346.16;;;16.98;100.00
55914;BME280;58179;48.776;9.124;2023-07-22T08:04:42;97343.91;;;17.06;100.00
55914;BME280;58179;48.776;9.124;2023-07-22T08:07:08;97339.09;;;17.21;100.00
55914;BME280;58179;48.776;9.124;2023-07-22T08:09:34;97346.06;;;17.50;100.00
55914;BME280;58179;48.776;9.124;2023-07-22T08:12:01;97340.91;;;17.53;100.00
55914;BME280;58179;48.776;9.124;2023-07-22T08:14:29;97339.63;;;17.51;100.00
55914;BME280;58179;48.776;9.124;2023-07-22T08:16:56;97336.19;;;17.77;100.00
55914;BME280;58179;48.776;9.124;2023-07-22T08:19:22;97336.78;;;17.88;100.00
55914;BME280;58179;48.776;9.124;2023-07-22T08:21:48;97333.88;;;17.98;100.00
55914;BME280;58179;48.776;9.124;2023-07-22T08:24:14;97332.50;;;18.01;100.00
55914;BME280;58179;48.776;9.124;2023-07-22T08:26:41;97333.97;;;18.07;100.00
55914;BME280;58179;48.776;9.124;2023-07-22T08:29:07;97336.78;;;18.38;100.00
55914;BME280;58179;48.776;9.124;2023-07-22T08:31:40;97332.38;;;18.55;100.00
55914;BME280;58179;48.776;9.124;2023-07-22T08:34:14;97333.94;;;18.70;100.00
55914;BME280;58179;48.776;9.124;2023-07-22T08:36:41;97335.91;;;18.87;100.00
55914;BME280;58179;48.776;9.124;2023-07-22T08:39:08;97330.38;;;19.06;100.00
55914;BME280;58179;48.776;9.124;2023-07-22T08:41:34;97329.00;;;19.39;100.00
55914;BME280;58179;48.776;9.124;2023-07-22T08:44:01;97329.41;;;19.32;100.00
55914;BME280;58179;48.776;9.124;2023-07-22T08:46:29;97327.53;;;19.64;100.00
55914;BME280;58179;48.776;9.124;2023-07-22T08:49:00;97318.72;;;19.81;100.00
55914;BME280;58179;48.776;9.124;2023-07-22T08:51:29;97327.16;;;20.05;100.00
55914;BME280;58179;48.776;9.124;2023-07-22T08:53:57;97321.03;;;20.30;100.00
55914;BME280;58179;48.776;9.124;2023-07-22T08:56:24;97319.31;;;20.60;100.00
55914;BME280;58179;48.776;9.124;2023-07-22T08:58:52;97318.34;;;20.99;100.00
55914;BME280;58179;48.776;9.124;2023-07-22T09:01:21;97325.28;;;21.09;100.00
55914;BME280;58179;48.776;9.124;2023-07-22T09:03:48;97328.31;;;20.99;100.00
55914;BME280;58179;48.776;9.124;2023-07-22T09:06:19;97332.28;;;20.93;100.00
55914;BME280;58179;48.776;9.124;2023-07-22T09:08:45;97334.03;;;20.80;100.00
55914;BME280;58179;48.776;9.124;2023-07-22T09:11:12;97323.91;;;20.77;100.00
55914;BME280;58179;48.776;9.124;2023-07-22T09:13:40;97334.53;;;20.82;100.00
55914;BME280;58179;48.776;9.124;2023-07-22T09:16:08;97331.66;;;20.96;100.00
55914;BME280;58179;48.776;9.124;2023-07-22T09:18:36;97329.28;;;20.94;100.00
55914;BME280;58179;48.776;9.124;2023-07-22T09:21:03;97325.78;;;21.02;100.00
55914;BME280;58179;48.776;9.124;2023-07-22T09:23:34;97330.84;;;21.04;100.00
55914;BME280;58179;48.776;9.124;2023-07-22T09:26:11;97327.06;;;21.05;100.00
55914;BME280;58179;48.776;9.124;2023-07-22T09:28:49;97330.03;;;21.12;100.00
55914;BME280;58179;48.776;9.124;2023-07-22T09:31:15;97337.31;;;21.11;100.00
55914;BME280;58179;48.776;9.124;2023-07-22T09:33:41;97328.78;;;21.18;100.00
55914;BME280;58179;48.776;9.124;2023-07-22T09:36:10;97327.63;;;21.28;100.00
55914;BME280;58179;48.776;9.124;2023-07-22T09:38:38;97332.25;;;21.27;100.00
55914;BME280;58179;48.776;9.124;2023-07-22T09:41:04;97331.78;;;21.25;100.00
55914;BME280;58179;48.776;9.124;2023-07-22T09:43:31;97335.06;;;21.39;100.00
55914;BME280;58179;48.776;9.124;2023-07-22T09:46:06;97321.16;;;21.67;93.32
55914;BME280;58179;48.776;9.124;2023-07-22T09:48:40;97326.53;;;21.29;81.26
55914;BME280;58179;48.776;9.124;2023-07-22T09:51:06;97323.09;;;21.19;100.00
55914;BME280;58179;48.776;9.124;2023-07-22T09:53:43;97320.09;;;21.04;100.00
55914;BME280;58179;48.776;9.124;2023-07-22T09:56:09;97319.00;;;20.88;100.00
55914;BME280;58179;48.776;9.124;2023-07-22T09:58:36;97315.03;;;20.85;98.05
55914;BME280;58179;48.776;9.124;2023-07-22T10:01:02;97313.31;;;20.89;83.23
55914;BME280;58179;48.776;9.124;2023-07-22T10:03:30;97316.44;;;20.91;95.99
55914;BME280;58179;48.776;9.124;2023-07-22T10:06:00;97316.13;;;21.01;91.68
55914;BME280;58179;48.776;9.124;2023-07-22T10:08:30;97316.41;;;21.26;98.39
55914;BME280;58179;48.776;9.124;2023-07-22T10:11:01;97314.97;;;21.28;79.87
55914;BME280;58179;48.776;9.124;2023-07-22T10:13:29;97309.56;;;21.28;80.67
55914;BME280;58179;48.776;9.124;2023-07-22T10:15:55;97317.72;;;21.19;92.62
55914;BME280;58179;48.776;9.124;2023-07-22T10:18:22;97320.22;;;21.24;100.00
55914;BME280;58179;48.776;9.124;2023-07-22T10:20:49;97310.00;;;21.47;90.45
55914;BME280;58179;48.776;9.124;2023-07-22T10:23:15;97307.16;;;21.44;79.76
55914;BME280;58179;48.776;9.124;2023-07-22T10:25:42;97307.91;;;21.53;91.92
55914;BME280;58179;48.776;9.124;2023-07-22T10:28:11;97304.75;;;21.51;89.50
55914;BME280;58179;48.776;9.124;2023-07-22T10:30:38;97306.06;;;21.74;98.19
55914;BME280;58179;48.776;9.124;2023-07-22T10:33:04;97304.88;;;22.22;100.00
55914;BME280;58179;48.776;9.124;2023-07-22T10:38:26;97276.75;;;23.30;65.91
55914;BME280;58179;48.776;9.124;2023-07-22T10:40:53;97292.94;;;23.42;61.81
55914;BME280;58179;48.776;9.124;2023-07-22T10:43:25;97288.22;;;24.24;72.09
55914;BME280;58179;48.776;9.124;2023-07-22T10:45:52;97282.75;;;24.77;69.86
55914;BME280;58179;48.776;9.124;2023-07-22T10:48:20;97276.53;;;25.04;68.23
55914;BME280;58179;48.776;9.124;2023-07-22T10:50:48;97282.16;;;25.42;78.63
55914;BME280;58179;48.776;9.124;2023-07-22T10:53:21;97282.25;;;25.93;78.15
55914;BME280;58179;48.776;9.124;2023-07-22T10:56:14;97278.66;;;25.89;80.52
55914;BME280;58179;48.776;9.124;2023-07-22T10:58:58;97277.03;;;25.69;72.26
55914;BME280;58179;48.776;9.124;2023-07-22T11:01:31;97279.00;;;25.56;59.96
55914;BME280;58179;48.776;9.124;2023-07-22T11:04:21;97274.97;;;25.19;68.68
55914;BME280;58179;48.776;9.124;2023-07-22T11:06:54;97281.91;;;24.88;63.71
55914;BME280;58179;48.776;9.124;2023-07-22T11:09:40;97292.63;;;24.05;64.16
55914;BME280;58179;48.776;9.124;2023-07-22T11:12:09;97287.56;;;23.54;75.26
55914;BME280;58179;48.776;9.124;2023-07-22T11:14:41;97287.50;;;23.18;85.32
55914;BME280;58179;48.776;9.124;2023-07-22T11:17:11;97275.25;;;22.75;80.56
55914;BME280;58179;48.776;9.124;2023-07-22T11:19:37;97275.97;;;22.43;75.88
55914;BME280;58179;48.776;9.124;2023-07-22T11:22:04;97268.81;;;22.06;69.80
55914;BME280;58179;48.776;9.124;2023-07-22T11:24:34;97271.03;;;22.04;85.74
55914;BME280;58179;48.776;9.124;2023-07-22T11:27:05;97269.56;;;21.85;100.00
55914;BME280;58179;48.776;9.124;2023-07-22T11:29:31;97267.75;;;21.69;93.22
55914;BME280;58179;48.776;9.124;2023-07-22T11:31:59;97262.38;;;21.98;100.00
55914;BME280;58179;48.776;9.124;2023-07-22T11:34:25;97263.69;;;22.13;97.90
55914;BME280;58179;48.776;9.124;2023-07-22T11:36:53;97255.59;;;22.33;85.38
55914;BME280;58179;48.776;9.124;2023-07-22T11:39:20;97262.50;;;22.43;76.44
55914;BME280;58179;48.776;9.124;2023-07-22T11:41:48;97254.78;;;22.33;64.33
55914;BME280;58179;48.776;9.124;2023-07-22T11:44:16;97237.63;;;22.70;84.07
55914;BME280;58179;48.776;9.124;2023-07-22T11:46:52;97230.75;;;22.94;93.68
55914;BME280;58179;48.776;9.124;2023-07-22T11:49:27;97236.44;;;23.25;95.06
55914;BME280;58179;48.776;9.124;2023-07-22T11:51:57;97220.91;;;23.34;75.34
55914;BME280;58179;48.776;9.124;2023-07-22T11:54:24;97225.09;;;23.56;66.81
55914;BME280;58179;48.776;9.124;2023-07-22T11:56:51;97223.50;;;23.43;75.14
55914;BME280;58179;48.776;9.124;2023-07-22T11:59:17;97227.25;;;23.50;87.61
55914;BME280;58179;48.776;9.124;2023-07-22T12:01:57;97223.59;;;23.34;73.02
55914;BME280;58179;48.776;9.124;2023-07-22T12:04:26;97219.44;;;23.25;89.57
55914;BME280;58179;48.776;9.124;2023-07-22T12:06:53;97212.34;;;23.08;73.27
55914;BME280;58179;48.776;9.124;2023-07-22T12:09:19;97214.59;;;22.73;61.67
55914;BME280;58179;48.776;9.124;2023-07-22T12:11:45;97219.66;;;22.62;69.82
55914;BME280;58179;48.776;9.124;2023-07-22T12:14:13;97222.66;;;22.61;78.31
55914;BME280;58179;48.776;9.124;2023-07-22T12:16:41;97208.34;;;22.81;88.39
55914;BME280;58179;48.776;9.124;2023-07-22T12:19:08;97205.38;;;23.07;71.90
55914;BME280;58179;48.776;9.124;2023-07-22T12:21:36;97201.19;;;23.46;78.54
55914;BME280;58179;48.776;9.124;2023-07-22T12:24:03;97190.59;;;23.77;83.76
55914;BME280;58179;48.776;9.124;2023-07-22T12:26:32;97194.91;;;24.06;90.16
55914;BME280;58179;48.776;9.124;2023-07-22T12:28:58;97192.13;;;24.43;90.12
55914;BME280;58179;48.776;9.124;2023-07-22T12:31:25;97185.84;;;24.54;81.84
55914;BME280;58179;48.776;9.124;2023-07-22T12:33:51;97182.13;;;24.75;82.68
55914;BME280;58179;48.776;9.124;2023-07-22T12:36:17;97190.66;;;25.04;93.31
55914;BME280;58179;48.776;9.124;2023-07-22T12:38:45;97183.56;;;25.31;69.72
55914;BME280;58179;48.776;9.124;2023-07-22T12:41:11;97180.75;;;25.28;67.66
55914;BME280;58179;48.776;9.124;2023-07-22T12:43:37;97178.22;;;25.03;60.77
55914;BME280;58179;48.776;9.124;2023-07-22T12:46:04;97189.91;;;24.76;66.91
55914;BME280;58179;48.776;9.124;2023-07-22T12:48:30;97191.97;;;24.67;71.58
55914;BME280;58179;48.776;9.124;2023-07-22T12:50:56;97196.16;;;24.49;69.89
55914;BME280;58179;48.776;9.124;2023-07-22T12:53:22;97176.34;;;24.05;53.73
55914;BME280;58179;48.776;9.124;2023-07-22T12:55:50;97183.94;;;23.87;61.53